createdAt,value
2018-07-23T00:00:48.316Z,99.99
2018-07-23T00:01:49.235Z,99.99
2018-07-23T00:02:53.236Z,99.99
2018-07-23T00:03:48.853Z,99.99
2018-07-23T00:04:48.204Z,99.99
2018-07-23T00:05:49.161Z,99.99
2018-07-23T00:06:48.807Z,99.99
2018-07-23T00:07:48.228Z,99.99
2018-07-23T00:08:48.444Z,99.99
2018-07-23T00:09:49.294Z,99.99
2018-07-23T00:10:48.980Z,99.99
2018-07-23T00:11:48.538Z,99.99
2018-07-23T00:12:48.940Z,99.99
2018-07-23T00:13:48.339Z,99.99
2018-07-23T00:15:31.464Z,99.99
2018-07-23T00:16:31.912Z,99.99
2018-07-23T00:17:31.834Z,99.99
2018-07-23T00:18:32.247Z,99.99
2018-07-23T00:19:31.780Z,99.99
2018-07-23T00:20:32.111Z,99.99
2018-07-23T00:21:31.899Z,99.99
2018-07-23T00:22:31.622Z,99.99
2018-07-23T00:23:32.141Z,99.99
2018-07-23T00:24:52.900Z,99.99
2018-07-23T00:25:53.349Z,99.99
2018-07-23T00:27:13.846Z,99.99
2018-07-23T00:28:14.295Z,99.99
2018-07-23T00:29:14.865Z,99.99
2018-07-23T00:30:14.424Z,99.99
2018-07-23T00:31:14.608Z,99.99
2018-07-23T00:32:35.463Z,99.99
2018-07-23T00:33:41.045Z,99.99
2018-07-23T00:34:35.846Z,99.99
2018-07-23T00:35:35.151Z,99.99
2018-07-23T00:36:35.971Z,99.99
2018-07-23T00:37:35.447Z,99.99
2018-07-23T00:38:36.072Z,99.99
2018-07-23T00:39:56.800Z,99.99
2018-07-23T00:40:59.559Z,99.99
2018-07-23T00:41:57.047Z,99.99
2018-07-23T00:42:57.579Z,99.99
2018-07-23T00:44:17.855Z,99.99
2018-07-23T00:45:18.420Z,99.99
2018-07-23T00:46:19.169Z,99.99
2018-07-23T00:47:18.995Z,99.99
2018-07-23T00:48:18.378Z,99.99
2018-07-23T00:49:19.072Z,99.99
2018-07-23T00:50:41.668Z,99.99
2018-07-23T00:51:42.165Z,99.99
2018-07-23T00:53:03.254Z,99.99
2018-07-23T00:54:04.155Z,99.99
2018-07-23T00:55:03.589Z,99.99
2018-07-23T00:56:03.788Z,99.99
2018-07-23T00:57:04.457Z,99.99
2018-07-23T00:58:04.064Z,99.99
2018-07-23T00:59:03.495Z,99.99
2018-07-23T01:00:04.230Z,99.99
2018-07-23T01:01:03.568Z,99.99
2018-07-23T01:02:04.192Z,99.99
2018-07-23T01:03:03.696Z,99.99
2018-07-23T01:04:04.277Z,99.99
2018-07-23T01:05:03.875Z,99.99
2018-07-23T01:06:04.250Z,99.99
2018-07-23T01:07:04.814Z,99.99
2018-07-23T01:08:03.960Z,99.99
2018-07-23T01:09:03.314Z,99.99
2018-07-23T01:10:03.946Z,99.99
2018-07-23T01:11:03.473Z,99.99
2018-07-23T01:12:04.127Z,99.99
2018-07-23T01:13:03.426Z,99.99
2018-07-23T01:14:04.624Z,99.99
2018-07-23T01:15:04.119Z,99.99
2018-07-23T01:16:03.691Z,99.99
2018-07-23T01:17:05.574Z,99.99
2018-07-23T01:18:04.569Z,99.99
2018-07-23T01:19:04.349Z,99.99
2018-07-23T01:20:03.809Z,99.99
2018-07-23T01:21:04.454Z,99.99
2018-07-23T01:22:04.428Z,99.99
2018-07-23T01:23:04.176Z,99.99
2018-07-23T01:24:04.091Z,99.99
2018-07-23T01:25:46.365Z,99.99
2018-07-23T01:26:46.659Z,99.99
2018-07-23T01:27:47.658Z,99.99
2018-07-23T01:28:46.894Z,99.99
2018-07-23T01:29:48.814Z,99.99
2018-07-23T01:30:48.322Z,99.99
2018-07-23T01:31:46.682Z,99.99
2018-07-23T01:32:47.396Z,99.99
2018-07-23T01:33:47.176Z,99.99
2018-07-23T01:35:07.814Z,99.99
2018-07-23T01:36:30.186Z,99.99
2018-07-23T01:37:31.210Z,99.99
2018-07-23T01:38:30.908Z,99.99
2018-07-23T01:39:53.952Z,99.99
2018-07-23T01:40:54.599Z,99.99
2018-07-23T01:41:54.184Z,99.99
2018-07-23T01:42:53.660Z,99.99
2018-07-23T01:43:55.696Z,99.99
2018-07-23T01:45:15.540Z,99.99
2018-07-23T01:46:15.980Z,99.99
2018-07-23T01:47:16.412Z,99.99
2018-07-23T01:48:15.827Z,99.99
2018-07-23T01:49:16.433Z,99.99
2018-07-23T01:50:15.950Z,99.99
2018-07-23T01:51:39.856Z,99.99
2018-07-23T01:52:40.515Z,99.99
2018-07-23T01:53:39.998Z,99.99
2018-07-23T01:54:40.380Z,99.99
2018-07-23T01:55:39.990Z,99.99
2018-07-23T01:56:40.634Z,99.99
2018-07-23T01:57:40.970Z,99.99
2018-07-23T01:58:40.511Z,99.99
2018-07-23T01:59:40.189Z,99.99
2018-07-23T02:00:39.837Z,99.99
2018-07-23T02:01:40.489Z,99.99
2018-07-23T02:03:01.470Z,99.99
2018-07-23T02:04:23.129Z,99.99
2018-07-23T02:05:24.030Z,99.99
2018-07-23T02:06:23.683Z,99.99
2018-07-23T02:07:23.483Z,99.99
2018-07-23T02:08:23.814Z,99.99
2018-07-23T02:09:23.776Z,99.99
2018-07-23T02:10:23.589Z,99.99
2018-07-23T02:11:24.626Z,99.99
2018-07-23T02:12:23.084Z,99.99
2018-07-23T02:13:23.670Z,99.99
2018-07-23T02:14:44.295Z,99.99
2018-07-23T02:15:45.192Z,99.99
2018-07-23T02:16:44.803Z,99.99
2018-07-23T02:17:44.755Z,99.99
2018-07-23T02:18:44.481Z,99.99
2018-07-23T02:19:44.805Z,99.99
2018-07-23T02:20:45.244Z,99.99
2018-07-23T02:21:44.995Z,99.99
2018-07-23T02:22:44.494Z,99.99
2018-07-23T02:23:45.129Z,99.99
2018-07-23T02:24:44.620Z,99.99
2018-07-23T02:25:45.149Z,99.99
2018-07-23T02:27:05.892Z,99.99
2018-07-23T02:28:06.284Z,99.99
2018-07-23T02:29:26.822Z,99.99
2018-07-23T02:30:27.457Z,99.99
2018-07-23T02:31:27.931Z,99.99
2018-07-23T02:32:27.474Z,99.99
2018-07-23T02:33:27.340Z,99.99
2018-07-23T02:34:27.954Z,99.99
2018-07-23T02:35:27.611Z,99.99
2018-07-23T02:36:27.022Z,99.99
2018-07-23T02:37:28.863Z,99.99
2018-07-23T02:38:27.174Z,99.99
2018-07-23T02:39:27.534Z,99.99
2018-07-23T02:40:27.715Z,99.99
2018-07-23T02:41:27.417Z,99.99
2018-07-23T02:42:26.812Z,99.99
2018-07-23T02:43:27.227Z,99.99
2018-07-23T02:44:27.724Z,99.99
2018-07-23T02:45:27.353Z,99.99
2018-07-23T02:46:27.927Z,99.99
2018-07-23T02:47:27.178Z,99.99
2018-07-23T02:48:27.611Z,99.99
2018-07-23T02:49:27.526Z,99.99
2018-07-23T02:50:27.129Z,99.99
2018-07-23T02:51:27.553Z,99.99
2018-07-23T02:52:27.201Z,99.99
2018-07-23T02:53:27.631Z,99.99
2018-07-23T02:54:27.270Z,99.99
2018-07-23T02:55:27.632Z,99.99
2018-07-23T02:56:27.025Z,99.99
2018-07-23T02:57:27.557Z,99.99
2018-07-23T02:58:26.979Z,99.99
2018-07-23T02:59:27.393Z,99.99
2018-07-23T03:00:27.931Z,99.99
2018-07-23T03:01:27.183Z,99.99
2018-07-23T03:02:48.902Z,99.99
2018-07-23T03:03:49.489Z,99.99
2018-07-23T03:05:32.596Z,99.99
2018-07-23T03:06:33.144Z,99.99
2018-07-23T03:07:32.493Z,99.99
2018-07-23T03:08:33.127Z,99.99
2018-07-23T03:09:32.453Z,99.99
2018-07-23T03:10:32.862Z,99.99
2018-07-23T03:11:32.564Z,99.99
2018-07-23T03:12:54.621Z,99.99
2018-07-23T03:13:54.946Z,99.99
2018-07-23T03:14:55.497Z,99.99
2018-07-23T03:15:54.819Z,99.99
2018-07-23T03:16:55.262Z,99.99
2018-07-23T03:17:54.735Z,99.99
2018-07-23T03:18:55.254Z,99.99
2018-07-23T03:19:54.457Z,99.99
2018-07-23T03:21:16.129Z,99.99
2018-07-23T03:22:37.733Z,99.99
2018-07-23T03:23:38.361Z,99.99
2018-07-23T03:24:38.061Z,99.99
2018-07-23T03:25:37.526Z,99.99
2018-07-23T03:26:37.791Z,99.99
2018-07-23T03:27:38.499Z,99.99
2018-07-23T03:29:01.733Z,99.99
2018-07-23T03:30:02.080Z,99.99
2018-07-23T03:31:02.770Z,99.99
2018-07-23T03:32:02.320Z,99.99
2018-07-23T03:33:01.895Z,99.99
2018-07-23T03:34:02.680Z,99.99
2018-07-23T03:35:02.066Z,99.99
2018-07-23T03:36:01.523Z,99.99
2018-07-23T03:37:02.013Z,99.99
2018-07-23T03:38:01.793Z,99.99
2018-07-23T03:39:23.803Z,99.99
2018-07-23T03:40:24.668Z,99.99
2018-07-23T03:41:24.455Z,99.99
2018-07-23T03:42:24.135Z,99.99
2018-07-23T03:43:25.004Z,99.99
2018-07-23T03:44:24.681Z,99.99
2018-07-23T03:45:24.154Z,99.99
2018-07-23T03:46:25.009Z,99.99
2018-07-23T03:47:24.476Z,99.99
2018-07-23T03:48:24.035Z,99.99
2018-07-23T03:49:24.446Z,99.99
2018-07-23T03:50:25.046Z,99.99
2018-07-23T03:51:24.347Z,99.99
2018-07-23T03:53:06.404Z,99.99
2018-07-23T03:54:06.947Z,99.99
2018-07-23T03:55:07.409Z,99.99
2018-07-23T03:56:06.811Z,99.99
2018-07-23T03:57:29.126Z,99.99
2018-07-23T03:58:29.668Z,99.99
2018-07-23T03:59:29.273Z,99.99
2018-07-23T04:00:28.916Z,99.99
2018-07-23T04:01:29.766Z,99.99
2018-07-23T04:02:29.562Z,99.99
2018-07-23T04:03:29.113Z,99.99
2018-07-23T04:04:29.769Z,99.99
2018-07-23T04:05:29.309Z,99.99
2018-07-23T04:06:29.854Z,99.99
2018-07-23T04:07:50.558Z,99.99
2018-07-23T04:08:51.128Z,99.99
2018-07-23T04:09:50.586Z,99.99
2018-07-23T04:10:51.290Z,99.99
2018-07-23T04:11:50.948Z,99.99
2018-07-23T04:12:53.046Z,99.99
2018-07-23T04:14:13.373Z,99.99
2018-07-23T04:15:14.091Z,99.99
2018-07-23T04:16:38.373Z,99.99
2018-07-23T04:17:39.386Z,99.99
2018-07-23T04:18:39.251Z,99.99
2018-07-23T04:19:38.701Z,99.99
2018-07-23T04:20:38.433Z,99.99
2018-07-23T04:21:38.901Z,99.99
2018-07-23T04:22:38.510Z,99.99
2018-07-23T04:23:40.237Z,99.99
2018-07-23T04:24:39.259Z,99.99
2018-07-23T04:25:39.023Z,99.99
2018-07-23T04:26:38.924Z,99.99
2018-07-23T04:27:38.893Z,99.99
2018-07-23T04:28:38.670Z,99.99
2018-07-23T04:29:38.479Z,99.99
2018-07-23T04:30:39.097Z,99.99
2018-07-23T04:31:38.621Z,99.99
2018-07-23T04:32:38.407Z,99.99
2018-07-23T04:33:39.170Z,99.99
2018-07-23T04:35:00.211Z,99.99
2018-07-23T04:36:00.798Z,99.99
2018-07-23T04:37:00.769Z,99.99
2018-07-23T04:38:00.406Z,99.99
2018-07-23T04:39:01.470Z,99.99
2018-07-23T04:40:01.127Z,99.99
2018-07-23T04:41:00.849Z,99.99
2018-07-23T04:42:22.347Z,99.99
2018-07-23T04:43:23.188Z,99.99
2018-07-23T04:45:05.814Z,99.99
2018-07-23T04:46:07.538Z,99.99
2018-07-23T04:47:27.449Z,99.99
2018-07-23T04:48:28.039Z,99.99
2018-07-23T04:49:27.708Z,99.99
2018-07-23T04:50:28.582Z,99.99
2018-07-23T04:51:28.273Z,99.99
2018-07-23T04:52:29.130Z,99.99
2018-07-23T04:53:49.368Z,99.99
2018-07-23T04:54:49.983Z,99.99
2018-07-23T04:55:49.578Z,99.99
2018-07-23T04:56:49.079Z,99.99
2018-07-23T04:57:49.935Z,99.99
2018-07-23T04:58:49.897Z,99.99
2018-07-23T04:59:49.670Z,99.99
2018-07-23T05:00:49.287Z,99.99
2018-07-23T05:02:10.984Z,99.44
2018-07-23T05:03:11.744Z,99.54
2018-07-23T05:04:11.180Z,99.78
2018-07-23T05:05:33.728Z,99.99
2018-07-23T05:06:34.440Z,99.99
2018-07-23T05:07:55.573Z,99.99
2018-07-23T05:08:56.260Z,99.99
2018-07-23T05:09:56.036Z,99.99
2018-07-23T05:11:17.362Z,99.99
2018-07-23T05:12:17.844Z,99.99
2018-07-23T05:13:17.408Z,99.99
2018-07-23T05:14:17.117Z,99.99
2018-07-23T05:15:18.082Z,99.99
2018-07-23T05:16:17.629Z,99.99
2018-07-23T05:17:17.267Z,99.99
2018-07-23T05:18:17.796Z,99.99
2018-07-23T05:19:17.775Z,99.99
2018-07-23T05:20:17.468Z,99.99
2018-07-23T05:21:18.642Z,99.99
2018-07-23T05:23:00.098Z,99.99
2018-07-23T05:24:03.099Z,99.99
2018-07-23T05:25:02.099Z,99.99
2018-07-23T05:26:00.848Z,99.99
2018-07-23T05:27:00.409Z,99.99
2018-07-23T05:28:01.279Z,99.99
2018-07-23T05:29:01.075Z,99.99
2018-07-23T05:30:00.986Z,99.99
2018-07-23T05:31:01.223Z,99.99
2018-07-23T05:32:22.510Z,99.99
2018-07-23T05:33:23.237Z,99.99
2018-07-23T05:34:22.934Z,99.99
2018-07-23T05:35:22.625Z,99.99
2018-07-23T05:36:23.278Z,99.99
2018-07-23T05:37:44.595Z,99.40
2018-07-23T05:38:45.206Z,97.81
2018-07-23T05:40:07.063Z,96.12
2018-07-23T05:41:28.105Z,94.10
2018-07-23T05:42:28.924Z,93.72
2018-07-23T05:43:28.826Z,93.91
2018-07-23T05:44:28.318Z,94.29
2018-07-23T05:45:28.238Z,93.62
2018-07-23T05:46:28.675Z,93.52
2018-07-23T05:47:28.591Z,93.43
2018-07-23T05:48:28.023Z,93.19
2018-07-23T05:49:50.127Z,91.74
2018-07-23T05:50:51.059Z,91.02
2018-07-23T05:52:12.064Z,90.72
2018-07-23T05:53:12.855Z,90.15
2018-07-23T05:54:12.443Z,90.15
2018-07-23T05:55:12.220Z,90.34
2018-07-23T05:56:27.281Z,90.63
2018-07-23T05:57:15.170Z,89.95
2018-07-23T05:58:12.098Z,90.34
2018-07-23T05:59:56.093Z,90.63
2018-07-23T06:00:57.007Z,90.15
2018-07-23T06:01:56.484Z,89.76
2018-07-23T06:02:56.518Z,88.99
2018-07-23T06:03:56.001Z,88.36
2018-07-23T06:04:57.018Z,87.97
2018-07-23T06:06:17.988Z,87.10
2018-07-23T06:07:19.474Z,86.62
2018-07-23T06:08:18.297Z,86.38
2018-07-23T06:09:18.113Z,85.80
2018-07-23T06:10:18.869Z,85.16
2018-07-23T06:11:18.821Z,84.53
2018-07-23T06:12:18.620Z,83.37
2018-07-23T06:13:39.959Z,82.06
2018-07-23T06:15:02.095Z,80.84
2018-07-23T06:16:02.848Z,79.97
2018-07-23T06:17:02.736Z,79.52
2018-07-23T06:18:02.427Z,78.79
2018-07-23T06:19:03.123Z,78.41
2018-07-23T06:20:30.836Z,77.09
2018-07-23T06:21:31.962Z,76.51
2018-07-23T06:22:31.812Z,75.57
2018-07-23T06:23:31.384Z,75.09
2018-07-23T06:25:15.562Z,75.23
2018-07-23T06:26:38.075Z,74.26
2018-07-23T06:27:39.077Z,73.80
2018-07-23T06:28:38.879Z,72.83
2018-07-23T06:29:38.797Z,72.16
2018-07-23T06:30:38.410Z,71.61
2018-07-23T06:31:38.027Z,70.93
2018-07-23T06:32:38.507Z,70.93
2018-07-23T06:33:38.144Z,70.67
2018-07-23T06:34:38.996Z,69.60
2018-07-23T06:35:38.581Z,69.06
2018-07-23T06:36:38.249Z,68.57
2018-07-23T06:37:39.690Z,68.57
2018-07-23T06:38:38.669Z,68.70
2018-07-23T06:39:38.609Z,67.63
2018-07-23T06:40:38.623Z,67.44
2018-07-23T06:41:59.798Z,66.60
2018-07-23T06:43:00.574Z,66.50
2018-07-23T06:44:00.344Z,66.60
2018-07-23T06:45:00.015Z,66.69
2018-07-23T06:46:00.732Z,66.24
2018-07-23T06:47:00.573Z,65.66
2018-07-23T06:48:00.177Z,65.75
2018-07-23T06:49:00.106Z,65.17
2018-07-23T06:50:00.982Z,65.27
2018-07-23T06:51:00.944Z,64.72
2018-07-23T06:52:00.690Z,65.59
2018-07-23T06:53:22.290Z,64.84
2018-07-23T06:54:23.028Z,64.26
2018-07-23T06:56:05.652Z,63.68
2018-07-23T06:57:06.671Z,62.70
2018-07-23T06:58:27.926Z,61.86
2018-07-23T06:59:28.624Z,60.98
2018-07-23T07:00:28.333Z,61.89
2018-07-23T07:01:27.930Z,61.40
2018-07-23T07:02:27.783Z,60.91
2018-07-23T07:03:28.835Z,61.11
2018-07-23T07:04:28.386Z,60.94
2018-07-23T07:05:28.450Z,60.65
2018-07-23T07:06:28.601Z,60.55
2018-07-23T07:07:28.489Z,60.10
2018-07-23T07:08:28.072Z,60.39
2018-07-23T07:09:27.887Z,58.86
2018-07-23T07:10:28.800Z,58.27
2018-07-23T07:11:28.390Z,58.17
2018-07-23T07:12:27.822Z,58.17
2018-07-23T07:13:29.275Z,58.66
2018-07-23T07:14:50.370Z,57.68
2018-07-23T07:15:50.029Z,57.10
2018-07-23T07:17:11.002Z,57.68
2018-07-23T07:18:11.682Z,57.49
2018-07-23T07:19:12.409Z,57.32
2018-07-23T07:20:32.679Z,56.93
2018-07-23T07:21:34.624Z,56.45
2018-07-23T07:22:33.464Z,56.35
2018-07-23T07:23:32.969Z,56.84
2018-07-23T07:24:53.917Z,55.66
2018-07-23T07:25:54.849Z,55.88
2018-07-23T07:26:54.815Z,55.91
2018-07-23T07:27:54.512Z,55.55
2018-07-23T07:28:54.458Z,54.47
2018-07-23T07:30:16.300Z,53.49
2018-07-23T07:31:16.821Z,53.37
2018-07-23T07:32:17.271Z,54.22
2018-07-23T07:33:17.581Z,55.10
2018-07-23T07:34:16.369Z,54.42
2018-07-23T07:35:38.981Z,55.30
2018-07-23T07:36:38.918Z,55.03
2018-07-23T07:37:38.650Z,54.17
2018-07-23T07:38:39.965Z,53.69
2018-07-23T07:39:39.432Z,53.88
2018-07-23T07:40:38.915Z,54.05
2018-07-23T07:41:39.735Z,54.64
2018-07-23T07:42:39.790Z,54.74
2018-07-23T07:43:40.101Z,54.77
2018-07-23T07:44:38.841Z,53.33
2018-07-23T07:45:39.366Z,52.64
2018-07-23T07:46:39.460Z,52.76
2018-07-23T07:47:38.995Z,52.64
2018-07-23T07:49:02.522Z,52.67
2018-07-23T07:50:03.120Z,52.89
2018-07-23T07:51:02.795Z,51.71
2018-07-23T07:52:03.327Z,51.64
2018-07-23T07:53:24.460Z,50.85
2018-07-23T07:54:24.535Z,51.27
2018-07-23T07:55:24.533Z,50.59
2018-07-23T07:56:25.363Z,50.59
2018-07-23T07:57:25.343Z,50.59
2018-07-23T07:58:46.575Z,50.39
2018-07-23T07:59:47.132Z,50.59
2018-07-23T08:00:47.213Z,49.63
2018-07-23T08:01:46.784Z,49.51
2018-07-23T08:02:46.554Z,49.99
2018-07-23T08:03:47.560Z,50.32
2018-07-23T08:04:46.197Z,49.90
2018-07-23T08:05:47.222Z,50.20
2018-07-23T08:06:46.798Z,50.20
2018-07-23T08:07:46.801Z,50.32
2018-07-23T08:09:08.348Z,50.32
2018-07-23T08:10:08.909Z,50.12
2018-07-23T08:11:31.790Z,49.43
2018-07-23T08:12:32.910Z,49.55
2018-07-23T08:13:54.653Z,48.47
2018-07-23T08:14:54.385Z,48.47
2018-07-23T08:15:55.474Z,49.55
2018-07-23T08:16:55.247Z,49.07
2018-07-23T08:18:16.826Z,50.02
2018-07-23T08:19:17.878Z,49.16
2018-07-23T08:20:17.909Z,49.16
2018-07-23T08:21:17.804Z,49.07
2018-07-23T08:22:17.740Z,48.40
2018-07-23T08:23:17.220Z,49.08
2018-07-23T08:24:16.907Z,48.33
2018-07-23T08:25:17.605Z,48.52
2018-07-23T08:26:17.177Z,47.86
2018-07-23T08:27:17.056Z,47.66
2018-07-23T08:28:17.505Z,46.95
2018-07-23T08:29:17.077Z,47.54
2018-07-23T08:30:16.687Z,47.93
2018-07-23T08:31:17.511Z,48.25
2018-07-23T08:32:17.467Z,46.21
2018-07-23T08:33:17.304Z,47.19
2018-07-23T08:34:17.769Z,46.53
2018-07-23T08:35:17.328Z,46.03
2018-07-23T08:36:16.961Z,45.84
2018-07-23T08:37:16.854Z,45.64
2018-07-23T08:39:00.832Z,45.17
2018-07-23T08:40:01.467Z,46.35
2018-07-23T08:41:44.673Z,46.35
2018-07-23T08:42:45.612Z,45.67
2018-07-23T08:44:07.110Z,45.67
2018-07-23T08:45:29.761Z,46.50
2018-07-23T08:46:30.703Z,46.31
2018-07-23T08:47:29.391Z,46.03
2018-07-23T08:48:30.329Z,46.13
2018-07-23T08:49:30.245Z,45.17
2018-07-23T08:50:51.685Z,45.68
2018-07-23T08:51:52.701Z,45.49
2018-07-23T08:53:35.715Z,44.70
2018-07-23T08:54:36.226Z,45.19
2018-07-23T08:55:36.213Z,45.29
2018-07-23T08:56:36.054Z,45.09
2018-07-23T08:57:35.773Z,45.29
2018-07-23T08:58:36.366Z,44.11
2018-07-23T08:59:36.038Z,44.23
2018-07-23T09:00:57.290Z,44.27
2018-07-23T09:01:57.777Z,44.57
2018-07-23T09:02:57.534Z,44.47
2018-07-23T09:03:58.124Z,43.98
2018-07-23T09:04:57.892Z,43.78
2018-07-23T09:06:19.169Z,43.19
2018-07-23T09:07:20.184Z,43.59
2018-07-23T09:08:20.191Z,43.09
2018-07-23T09:09:20.001Z,43.29
2018-07-23T09:10:20.024Z,42.79
2018-07-23T09:11:41.238Z,41.33
2018-07-23T09:12:41.978Z,41.14
2018-07-23T09:13:41.655Z,41.55
2018-07-23T09:14:41.678Z,41.87
2018-07-23T09:15:41.532Z,41.77
2018-07-23T09:17:23.997Z,41.57
2018-07-23T09:18:24.872Z,42.07
2018-07-23T09:19:24.824Z,40.80
2018-07-23T09:20:45.872Z,41.28
2018-07-23T09:21:46.730Z,41.57
2018-07-23T09:22:47.758Z,41.06
2018-07-23T09:23:46.722Z,42.36
2018-07-23T09:24:46.652Z,41.08
2018-07-23T09:25:46.602Z,40.80
2018-07-23T09:26:46.427Z,40.80
2018-07-23T09:27:45.912Z,40.61
2018-07-23T09:28:46.738Z,40.61
2018-07-23T09:29:46.354Z,40.50
2018-07-23T09:30:46.030Z,40.72
2018-07-23T09:31:45.886Z,40.53
2018-07-23T09:32:46.499Z,41.12
2018-07-23T09:33:46.115Z,40.84
2018-07-23T09:34:45.562Z,40.94
2018-07-23T09:36:07.508Z,40.34
2018-07-23T09:37:08.218Z,40.33
2018-07-23T09:38:08.784Z,40.21
2018-07-23T09:39:08.391Z,39.42
2018-07-23T09:40:08.142Z,41.30
2018-07-23T09:41:08.005Z,40.13
2018-07-23T09:42:07.951Z,39.34
2018-07-23T09:43:29.892Z,39.62
2018-07-23T09:44:30.632Z,39.91
2018-07-23T09:45:30.546Z,39.32
2018-07-23T09:46:30.124Z,40.70
2018-07-23T09:47:54.394Z,39.64
2018-07-23T09:48:55.115Z,39.04
2018-07-23T09:49:54.690Z,39.65
2018-07-23T09:50:54.313Z,39.06
2018-07-23T09:51:55.306Z,39.06
2018-07-23T09:52:55.061Z,38.37
2018-07-23T09:53:54.843Z,38.94
2018-07-23T09:55:16.441Z,39.93
2018-07-23T09:56:16.852Z,39.14
2018-07-23T09:57:16.366Z,38.57
2018-07-23T09:58:16.769Z,38.39
2018-07-23T09:59:16.412Z,37.70
2018-07-23T10:00:38.391Z,36.90
2018-07-23T10:01:39.051Z,37.62
2018-07-23T10:02:39.004Z,37.04
2018-07-23T10:03:38.804Z,36.64
2018-07-23T10:04:38.445Z,36.72
2018-07-23T10:05:39.006Z,36.74
2018-07-23T10:06:39.405Z,36.66
2018-07-23T10:07:38.990Z,36.56
2018-07-23T10:08:38.627Z,36.16
2018-07-23T10:09:38.384Z,36.38
2018-07-23T10:10:39.723Z,35.98
2018-07-23T10:11:38.281Z,36.10
2018-07-23T10:12:39.194Z,35.82
2018-07-23T10:13:38.883Z,35.34
2018-07-23T10:15:00.489Z,33.95
2018-07-23T10:16:22.688Z,35.62
2018-07-23T10:17:23.941Z,35.22
2018-07-23T10:18:22.900Z,35.41
2018-07-23T10:19:22.933Z,35.13
2018-07-23T10:20:44.709Z,35.64
2018-07-23T10:21:45.588Z,35.44
2018-07-23T10:22:45.271Z,34.86
2018-07-23T10:23:44.815Z,33.78
2018-07-23T10:24:45.455Z,34.06
2018-07-23T10:25:45.605Z,34.64
2018-07-23T10:26:45.290Z,34.27
2018-07-23T10:27:44.974Z,34.76
2018-07-23T10:28:45.528Z,34.66
2018-07-23T10:30:06.496Z,33.48
2018-07-23T10:31:07.204Z,33.48
2018-07-23T10:32:06.958Z,33.50
2018-07-23T10:33:06.829Z,32.41
2018-07-23T10:34:29.192Z,33.50
2018-07-23T10:35:50.879Z,32.78
2018-07-23T10:36:50.881Z,33.36
2018-07-23T10:37:51.702Z,33.87
2018-07-23T10:38:51.799Z,33.45
2018-07-23T10:39:50.686Z,33.47
2018-07-23T10:40:51.922Z,33.45
2018-07-23T10:41:50.796Z,34.64
2018-07-23T10:42:51.287Z,33.94
2018-07-23T10:43:50.900Z,34.64
2018-07-23T10:44:50.598Z,32.97
2018-07-23T10:45:51.037Z,32.97
2018-07-23T10:46:50.595Z,33.27
2018-07-23T10:48:33.800Z,33.54
2018-07-23T10:49:34.360Z,33.34
2018-07-23T10:50:34.465Z,33.54
2018-07-23T10:51:34.327Z,34.41
2018-07-23T10:52:55.038Z,35.03
2018-07-23T10:53:55.814Z,34.64
2018-07-23T10:54:55.491Z,34.36
2018-07-23T10:55:56.276Z,32.69
2018-07-23T10:56:55.969Z,32.79
2018-07-23T10:57:55.912Z,34.18
2018-07-23T10:59:17.232Z,33.57
2018-07-23T11:00:18.074Z,33.17
2018-07-23T11:01:17.579Z,33.87
2018-07-23T11:02:17.486Z,32.66
2018-07-23T11:03:18.258Z,33.25
2018-07-23T11:04:18.069Z,33.24
2018-07-23T11:05:17.809Z,34.13
2018-07-23T11:06:17.442Z,33.25
2018-07-23T11:07:39.549Z,32.46
2018-07-23T11:08:40.337Z,33.07
2018-07-23T11:09:40.058Z,33.17
2018-07-23T11:10:40.291Z,31.99
2018-07-23T11:12:01.888Z,32.29
2018-07-23T11:13:02.503Z,32.78
2018-07-23T11:14:02.296Z,33.52
2018-07-23T11:15:03.171Z,34.31
2018-07-23T11:16:02.909Z,34.43
2018-07-23T11:17:02.641Z,34.55
2018-07-23T11:18:02.417Z,34.06
2018-07-23T11:19:02.175Z,34.38
2018-07-23T11:20:02.980Z,32.79
2018-07-23T11:21:02.933Z,33.50
2018-07-23T11:22:03.061Z,33.09
2018-07-23T11:23:04.127Z,33.18
2018-07-23T11:24:26.429Z,33.36
2018-07-23T11:25:39.178Z,35.17
2018-07-23T11:26:18.066Z,35.12
2018-07-23T11:28:01.933Z,35.72
2018-07-23T11:29:02.538Z,36.18
2018-07-23T11:30:02.277Z,36.31
2018-07-23T11:31:03.055Z,36.10
2018-07-23T11:32:02.917Z,36.90
2018-07-23T11:33:23.969Z,36.69
2018-07-23T11:34:25.288Z,37.92
2018-07-23T11:35:25.065Z,37.98
2018-07-23T11:36:24.703Z,38.16
2018-07-23T11:37:24.430Z,38.71
2018-07-23T11:38:47.774Z,39.31
2018-07-23T11:40:31.529Z,38.75
2018-07-23T11:41:32.326Z,38.59
2018-07-23T11:42:32.222Z,38.51
2018-07-23T11:43:32.111Z,37.84
2018-07-23T11:44:31.823Z,37.36
2018-07-23T11:45:32.362Z,37.48
2018-07-23T11:46:32.078Z,36.41
2018-07-23T11:47:31.757Z,36.03
2018-07-23T11:48:32.345Z,36.05
2018-07-23T11:49:32.152Z,36.56
2018-07-23T11:50:31.700Z,35.57
2018-07-23T11:51:32.764Z,34.40
2018-07-23T11:52:32.700Z,34.61
2018-07-23T11:53:32.409Z,34.33
2018-07-23T11:54:32.102Z,34.71
2018-07-23T11:55:32.066Z,35.01
2018-07-23T11:56:31.755Z,35.13
2018-07-23T11:57:31.577Z,34.64
2018-07-23T11:58:32.356Z,35.36
2018-07-23T11:59:31.992Z,34.98
2018-07-23T12:00:31.529Z,33.18
2018-07-23T12:01:53.949Z,33.59
2018-07-23T12:02:54.584Z,33.09
2018-07-23T12:03:54.514Z,32.79
2018-07-23T12:04:54.049Z,32.99
2018-07-23T12:05:53.933Z,33.09
2018-07-23T12:06:54.516Z,32.51
2018-07-23T12:07:53.888Z,32.41
2018-07-23T12:08:54.541Z,32.29
2018-07-23T12:09:54.038Z,32.69
2018-07-23T12:10:53.585Z,33.09
2018-07-23T12:12:15.563Z,33.70
2018-07-23T12:13:16.902Z,33.30
2018-07-23T12:14:16.422Z,32.11
2018-07-23T12:15:15.804Z,33.09
2018-07-23T12:16:17.167Z,33.09
2018-07-23T12:17:16.466Z,33.50
2018-07-23T12:18:16.033Z,31.83
2018-07-23T12:19:15.816Z,32.04
2018-07-23T12:20:16.482Z,32.44
2018-07-23T12:21:16.399Z,32.32
2018-07-23T12:22:15.971Z,33.12
2018-07-23T12:23:40.030Z,32.90
2018-07-23T12:24:40.814Z,31.91
2018-07-23T12:26:02.955Z,31.83
2018-07-23T12:27:02.756Z,32.23
2018-07-23T12:28:24.862Z,31.84
2018-07-23T12:29:25.593Z,32.32
2018-07-23T12:30:25.594Z,32.60
2018-07-23T12:31:25.216Z,32.81
2018-07-23T12:32:24.800Z,32.79
2018-07-23T12:33:25.615Z,33.29
2018-07-23T12:34:46.384Z,33.88
2018-07-23T12:35:47.293Z,33.37
2018-07-23T12:36:46.929Z,33.78
2018-07-23T12:37:46.567Z,33.48
2018-07-23T12:38:47.007Z,33.90
2018-07-23T12:40:07.704Z,33.60
2018-07-23T12:41:08.180Z,33.11
2018-07-23T12:42:07.836Z,33.30
2018-07-23T12:43:08.900Z,32.79
2018-07-23T12:44:30.839Z,33.72
2018-07-23T12:45:30.626Z,34.48
2018-07-23T12:46:53.798Z,35.32
2018-07-23T12:47:53.844Z,36.98
2018-07-23T12:48:56.551Z,36.46
2018-07-23T12:49:55.043Z,37.26
2018-07-23T12:51:17.548Z,35.99
2018-07-23T12:52:18.224Z,36.11
2018-07-23T12:53:18.002Z,35.61
2018-07-23T12:54:17.573Z,35.42
2018-07-23T12:55:18.255Z,36.43
2018-07-23T12:56:17.860Z,36.35
2018-07-23T12:57:18.180Z,35.97
2018-07-23T12:58:18.123Z,34.99
2018-07-23T12:59:17.673Z,35.78
2018-07-23T13:00:17.504Z,35.11
2018-07-23T13:01:17.664Z,33.72
2018-07-23T13:02:18.612Z,34.23
2018-07-23T13:03:41.727Z,34.53
2018-07-23T13:04:42.294Z,34.05
2018-07-23T13:05:41.952Z,33.64
2018-07-23T13:06:42.938Z,33.54
2018-07-23T13:08:06.770Z,34.13
2018-07-23T13:09:29.431Z,33.44
2018-07-23T13:10:33.791Z,33.36
2018-07-23T13:11:30.393Z,32.94
2018-07-23T13:12:29.970Z,32.64
2018-07-23T13:13:29.587Z,33.65
2018-07-23T13:14:30.081Z,33.65
2018-07-23T13:15:30.206Z,33.36
2018-07-23T13:16:51.650Z,33.17
2018-07-23T13:17:52.543Z,33.48
2018-07-23T13:18:58.800Z,33.88
2018-07-23T13:19:52.404Z,33.39
2018-07-23T13:20:51.925Z,32.89
2018-07-23T13:21:51.405Z,33.48
2018-07-23T13:22:51.927Z,31.60
2018-07-23T13:23:52.168Z,31.30
2018-07-23T13:25:34.795Z,32.09
2018-07-23T13:26:35.603Z,32.51
2018-07-23T13:27:35.998Z,33.00
2018-07-23T13:28:35.496Z,33.69
2018-07-23T13:29:35.362Z,33.29
2018-07-23T13:30:35.204Z,33.67
2018-07-23T13:31:35.092Z,32.78
2018-07-23T13:32:34.747Z,32.26
2018-07-23T13:33:35.375Z,32.86
2018-07-23T13:34:36.083Z,33.47
2018-07-23T13:35:34.874Z,32.67
2018-07-23T13:36:35.730Z,34.27
2018-07-23T13:37:35.429Z,33.17
2018-07-23T13:38:35.484Z,32.96
2018-07-23T13:39:35.437Z,33.64
2018-07-23T13:40:35.249Z,33.54
2018-07-23T13:41:35.134Z,33.34
2018-07-23T13:42:35.014Z,33.33